createdAt,value
2018-04-15T00:00:58.488Z,12.41
2018-04-15T00:01:58.734Z,12.34
2018-04-15T00:02:58.452Z,12.45
2018-04-15T00:03:58.172Z,12.48
2018-04-15T00:04:58.423Z,12.48
2018-04-15T00:05:58.143Z,12.45
2018-04-15T00:06:58.393Z,12.41
2018-04-15T00:07:58.375Z,12.46
2018-04-15T00:08:58.364Z,12.44
2018-04-15T00:09:58.623Z,12.46
2018-04-15T00:10:58.334Z,12.38
2018-04-15T00:11:58.582Z,12.45
2018-04-15T00:12:58.046Z,12.38
2018-04-15T00:13:58.571Z,12.38
2018-04-15T00:14:58.008Z,12.44
2018-04-15T00:15:58.524Z,12.38
2018-04-15T00:16:58.245Z,12.37
2018-04-15T00:17:58.226Z,12.38
2018-04-15T00:18:58.213Z,12.33
2018-04-15T00:19:58.197Z,12.38
2018-04-15T00:20:58.448Z,12.41
2018-04-15T00:21:58.634Z,12.38
2018-04-15T00:22:58.421Z,12.3
2018-04-15T00:23:58.134Z,12.39
2018-04-15T00:24:58.396Z,12.39
2018-04-15T00:25:58.371Z,12.38
2018-04-15T00:26:58.357Z,12.38
2018-04-15T00:27:58.344Z,12.39
2018-04-15T00:28:58.078Z,12.26
2018-04-15T00:29:58.253Z,12.34
2018-04-15T00:30:58.308Z,12.38
2018-04-15T00:31:58.024Z,12.38
2018-04-15T00:32:58.010Z,12.34
2018-04-15T00:33:57.992Z,12.3
2018-04-15T00:34:57.972Z,12.34
2018-04-15T00:35:58.230Z,12.38
2018-04-15T00:36:57.946Z,12.34
2018-04-15T00:37:57.930Z,12.39
2018-04-15T00:38:57.919Z,12.44
2018-04-15T00:39:58.158Z,12.44
2018-04-15T00:40:57.623Z,12.38
2018-04-15T00:41:57.867Z,12.38
2018-04-15T00:42:57.596Z,12.37
2018-04-15T00:43:57.835Z,12.51
2018-04-15T00:44:57.557Z,12.46
2018-04-15T00:45:57.804Z,12.46
2018-04-15T00:46:58.056Z,12.48
2018-04-15T00:47:57.515Z,12.34
2018-04-15T00:48:57.763Z,12.42
2018-04-15T00:49:57.480Z,12.41
2018-04-15T00:50:57.462Z,12.41
2018-04-15T00:51:57.713Z,12.34
2018-04-15T00:52:57.441Z,12.38
2018-04-15T00:53:57.682Z,12.33
2018-04-15T00:54:57.403Z,12.39
2018-04-15T00:55:57.918Z,12.33
2018-04-15T00:56:57.901Z,12.33
2018-04-15T00:57:57.642Z,12.34
2018-04-15T00:58:57.343Z,12.24
2018-04-15T00:59:57.595Z,12.31
2018-04-15T01:00:57.319Z,12.27
2018-04-15T01:01:57.299Z,12.23
2018-04-15T01:02:57.549Z,12.23
2018-04-15T01:03:57.797Z,12.23
2018-04-15T01:04:57.531Z,12.23
2018-04-15T01:05:57.767Z,12.23
2018-04-15T01:06:57.757Z,12.38
2018-04-15T01:07:57.467Z,12.39
2018-04-15T01:08:57.460Z,12.31
2018-04-15T01:09:57.448Z,12.39
2018-04-15T01:10:57.164Z,12.39
2018-04-15T01:11:57.153Z,12.42
2018-04-15T01:12:57.398Z,12.33
2018-04-15T01:13:57.387Z,12.42
2018-04-15T01:14:57.631Z,12.48
2018-04-15T01:15:57.624Z,12.48
2018-04-15T01:16:57.343Z,12.42
2018-04-15T01:17:57.326Z,12.38
2018-04-15T01:18:57.627Z,12.51
2018-04-15T01:19:57.028Z,12.41
2018-04-15T01:20:57.016Z,12.42
2018-04-15T01:21:57.264Z,12.48
2018-04-15T01:22:57.257Z,12.44
2018-04-15T01:23:57.227Z,12.51
2018-04-15T01:24:56.952Z,12.49
2018-04-15T01:25:56.938Z,12.57
2018-04-15T01:26:56.917Z,12.49
2018-04-15T01:27:57.436Z,12.46
2018-04-15T01:28:57.157Z,12.46
2018-04-15T01:29:57.159Z,12.56
2018-04-15T01:30:57.406Z,12.51
2018-04-15T01:31:57.109Z,12.48
2018-04-15T01:32:57.110Z,12.54
2018-04-15T01:33:56.822Z,12.49
2018-04-15T01:34:57.074Z,12.46
2018-04-15T01:35:56.791Z,12.6
2018-04-15T01:36:57.305Z,12.59
2018-04-15T01:37:57.031Z,12.56
2018-04-15T01:38:57.012Z,12.59
2018-04-15T01:39:56.998Z,12.49
2018-04-15T01:40:57.241Z,12.52
2018-04-15T01:41:56.707Z,12.49
2018-04-15T01:42:56.690Z,12.49
2018-04-15T01:43:56.938Z,12.49
2018-04-15T01:44:57.187Z,12.46
2018-04-15T01:45:57.169Z,12.41
2018-04-15T01:46:56.913Z,12.49
2018-04-15T01:47:56.880Z,12.52
2018-04-15T01:48:57.125Z,12.45
2018-04-15T01:49:56.852Z,12.49
2018-04-15T01:50:56.837Z,12.51
2018-04-15T01:51:56.558Z,12.49
2018-04-15T01:52:56.537Z,12.51
2018-04-15T01:53:57.058Z,12.45
2018-04-15T01:54:57.047Z,12.52
2018-04-15T01:55:57.027Z,12.48
2018-04-15T01:56:56.742Z,12.51
2018-04-15T01:57:56.733Z,12.49
2018-04-15T01:58:56.463Z,12.45
2018-04-15T01:59:56.701Z,12.44
2018-04-15T02:00:56.953Z,12.39
2018-04-15T02:01:56.684Z,12.39
2018-04-15T02:02:56.924Z,12.38
2018-04-15T02:03:56.644Z,12.39
2018-04-15T02:04:56.903Z,12.38
2018-04-15T02:05:56.614Z,12.33
2018-04-15T02:06:56.867Z,12.41
2018-04-15T02:07:56.845Z,12.41
2018-04-15T02:08:56.562Z,12.38
2018-04-15T02:09:56.287Z,12.37
2018-04-15T02:10:56.538Z,12.38
2018-04-15T02:11:56.527Z,12.34
2018-04-15T02:12:56.505Z,12.38
2018-04-15T02:13:56.495Z,12.3
2018-04-15T02:14:56.480Z,12.21
2018-04-15T02:15:56.734Z,12.29
2018-04-15T02:16:56.181Z,12.19
2018-04-15T02:17:56.691Z,12.29
2018-04-15T02:18:56.440Z,12.2
2018-04-15T02:19:56.407Z,12.26
2018-04-15T02:20:56.647Z,12.24
2018-04-15T02:21:56.107Z,12.23
2018-04-15T02:22:56.095Z,12.2
2018-04-15T02:23:56.073Z,12.16
2018-04-15T02:24:56.325Z,12.16
2018-04-15T02:25:56.309Z,12.2
2018-04-15T02:26:56.297Z,12.19
2018-04-15T02:27:56.277Z,12.21
2018-04-15T02:28:56.527Z,12.15
2018-04-15T02:29:56.655Z,12.15
2018-04-15T02:30:56.507Z,12.19
2018-04-15T02:31:56.501Z,12.19
2018-04-15T02:32:56.470Z,12.19
2018-04-15T02:33:56.461Z,12.16
2018-04-15T02:34:56.454Z,12.15
2018-04-15T02:35:56.167Z,12.23
2018-04-15T02:36:56.143Z,12.23
2018-04-15T02:37:56.129Z,12.2
2018-04-15T02:38:56.112Z,12.19
2018-04-15T02:39:56.099Z,12.16
2018-04-15T02:40:56.095Z,12.15
2018-04-15T02:41:56.076Z,12.27
2018-04-15T02:42:55.791Z,12.19
2018-04-15T02:43:56.041Z,12.26
2018-04-15T02:44:56.290Z,12.24
2018-04-15T02:45:56.007Z,12.24
2018-04-15T02:46:55.730Z,12.16
2018-04-15T02:47:56.256Z,12.27
2018-04-15T02:48:55.695Z,12.2
2018-04-15T02:49:56.219Z,12.24
2018-04-15T02:50:56.202Z,12.19
2018-04-15T02:51:55.924Z,12.19
2018-04-15T02:52:55.639Z,12.21
2018-04-15T02:53:55.936Z,12.16
2018-04-15T02:54:55.876Z,12.19
2018-04-15T02:55:56.137Z,12.16
2018-04-15T02:56:55.574Z,12.23
2018-04-15T02:57:55.829Z,12.13
2018-04-15T02:58:56.073Z,12.23
2018-04-15T02:59:55.532Z,12.16
2018-04-15T03:00:56.052Z,12.21
2018-04-15T03:01:55.765Z,12.11
2018-04-15T03:02:55.755Z,12.05
2018-04-15T03:03:55.739Z,12.05
2018-04-15T03:04:55.457Z,12.05
2018-04-15T03:05:55.717Z,12.12
2018-04-15T03:06:55.432Z,12.02
2018-04-15T03:07:55.943Z,12.02
2018-04-15T03:08:55.933Z,12.05
2018-04-15T03:09:55.921Z,12.05
2018-04-15T03:10:55.631Z,12.11
2018-04-15T03:11:55.350Z,11.97
2018-04-15T03:12:55.600Z,11.96
2018-04-15T03:13:55.848Z,11.99
2018-04-15T03:14:55.306Z,11.93
2018-04-15T03:15:55.827Z,11.85
2018-04-15T03:16:55.613Z,11.89
2018-04-15T03:17:55.533Z,11.97
2018-04-15T03:18:55.516Z,11.97
2018-04-15T03:19:55.761Z,11.99
2018-04-15T03:20:55.743Z,11.87
2018-04-15T03:21:55.203Z,11.94
2018-04-15T03:22:55.182Z,11.85
2018-04-15T03:23:55.167Z,11.87
2018-04-15T03:24:55.422Z,11.96
2018-04-15T03:25:55.679Z,11.93
2018-04-15T03:26:55.403Z,11.87
2018-04-15T03:27:55.374Z,11.85
2018-04-15T03:28:55.364Z,11.78
2018-04-15T03:29:55.347Z,11.77
2018-04-15T03:30:55.599Z,11.78
2018-04-15T03:31:55.060Z,11.85
2018-04-15T03:32:55.302Z,11.85
2018-04-15T03:33:55.545Z,11.82
2018-04-15T03:34:55.534Z,11.85
2018-04-15T03:35:55.255Z,11.82
2018-04-15T03:36:55.240Z,11.8
2018-04-15T03:37:55.493Z,11.82
2018-04-15T03:38:54.939Z,11.83
2018-04-15T03:39:55.460Z,11.74
2018-04-15T03:40:55.175Z,11.78
2018-04-15T03:41:54.900Z,11.7
2018-04-15T03:42:55.155Z,11.74
2018-04-15T03:43:55.169Z,11.7
2018-04-15T03:44:55.380Z,11.77
2018-04-15T03:45:55.365Z,11.7
2018-04-15T03:46:55.090Z,11.68
2018-04-15T03:47:55.102Z,11.8
2018-04-15T03:48:55.051Z,11.78
2018-04-15T03:49:54.774Z,11.78
2018-04-15T03:50:55.024Z,11.82
2018-04-15T03:51:55.012Z,11.77
2018-04-15T03:52:55.262Z,11.8
2018-04-15T03:53:54.978Z,11.9
2018-04-15T03:54:54.966Z,11.9
2018-04-15T03:55:55.220Z,11.89
2018-04-15T03:56:55.203Z,11.9
2018-04-15T03:57:55.182Z,11.87
2018-04-15T03:58:54.906Z,11.89
2018-04-15T03:59:54.623Z,11.89
2018-04-15T04:00:54.870Z,11.89
2018-04-15T04:01:54.856Z,11.93
2018-04-15T04:02:54.575Z,11.93
2018-04-15T04:03:54.829Z,11.97
2018-04-15T04:04:54.812Z,11.89
2018-04-15T04:05:55.064Z,11.94
2018-04-15T04:06:55.047Z,11.97
2018-04-15T04:07:55.031Z,11.99
2018-04-15T04:08:55.032Z,11.94
2018-04-15T04:09:54.734Z,12.01
2018-04-15T04:10:54.454Z,12.09
2018-04-15T04:11:54.440Z,12.08
2018-04-15T04:12:54.744Z,12.08
2018-04-15T04:13:54.414Z,12.08
2018-04-15T04:14:54.659Z,12.09
2018-04-15T04:15:54.919Z,12.08
2018-04-15T04:16:54.627Z,12.08
2018-04-15T04:17:54.615Z,12.09
2018-04-15T04:18:54.335Z,12.12
2018-04-15T04:19:54.328Z,12.12
2018-04-15T04:20:54.306Z,12.09
2018-04-15T04:21:54.567Z,12.04
2018-04-15T04:22:54.543Z,12.06
2018-04-15T04:23:54.800Z,12.09
2018-04-15T04:24:54.514Z,12.04
2018-04-15T04:25:54.492Z,12.08
2018-04-15T04:26:54.743Z,11.97
2018-04-15T04:27:54.727Z,11.97
2018-04-15T04:28:54.726Z,12.01
2018-04-15T04:29:54.704Z,12.06
2018-04-15T04:30:54.487Z,12.01
2018-04-15T04:31:54.404Z,12.09
2018-04-15T04:32:54.416Z,12.06
2018-04-15T04:33:54.368Z,12.11
2018-04-15T04:34:54.360Z,12.11
2018-04-15T04:35:54.610Z,12.05
2018-04-15T04:36:54.329Z,12.11
2018-04-15T04:37:54.312Z,12.12
2018-04-15T04:38:54.297Z,12.05
2018-04-15T04:39:54.283Z,12.06
2018-04-15T04:40:54.268Z,12.05
2018-04-15T04:41:54.561Z,12.09
2018-04-15T04:42:54.507Z,12.09
2018-04-15T04:43:54.238Z,12.06
2018-04-15T04:44:54.215Z,12.06
2018-04-15T04:45:54.464Z,12.04
2018-04-15T04:46:54.455Z,12.12
2018-04-15T04:47:53.905Z,12.09
2018-04-15T04:48:53.878Z,12.11
2018-04-15T04:49:54.408Z,12.08
2018-04-15T04:50:54.434Z,12.05
2018-04-15T04:51:53.844Z,12.02
2018-04-15T04:52:54.085Z,12.09
2018-04-15T04:53:54.072Z,12.05
2018-04-15T04:54:54.332Z,12.11
2018-04-15T04:55:54.042Z,12.08
2018-04-15T04:56:54.022Z,12.05
2018-04-15T04:57:53.752Z,12.08
2018-04-15T04:58:54.260Z,12.09
2018-04-15T04:59:54.239Z,12.05
2018-04-15T05:00:54.228Z,12.16
2018-04-15T05:01:53.956Z,12.02
2018-04-15T05:02:53.939Z,12.06
2018-04-15T05:03:53.930Z,12.11
2018-04-15T05:04:54.181Z,12.06
2018-04-15T05:05:54.162Z,12.13
2018-04-15T05:06:54.145Z,12.15
2018-04-15T05:07:54.126Z,12.15
2018-04-15T05:08:53.578Z,12.15
2018-04-15T05:09:53.560Z,12.15
2018-04-15T05:10:53.827Z,12.15
2018-04-15T05:11:53.801Z,12.21
2018-04-15T05:12:54.051Z,12.21
2018-04-15T05:13:53.779Z,12.24
2018-04-15T05:14:54.018Z,12.16
2018-04-15T05:15:53.737Z,12.21
2018-04-15T05:16:53.993Z,12.27
2018-04-15T05:17:53.980Z,12.26
2018-04-15T05:18:53.431Z,12.27
2018-04-15T05:19:53.679Z,12.27
2018-04-15T05:20:53.395Z,12.24
2018-04-15T05:21:53.649Z,12.27
2018-04-15T05:22:53.631Z,12.29
2018-04-15T05:23:53.625Z,12.31
2018-04-15T05:24:53.864Z,12.3
2018-04-15T05:25:53.325Z,12.34
2018-04-15T05:26:53.833Z,12.42
2018-04-15T05:27:53.568Z,12.39
2018-04-15T05:28:53.541Z,12.33
2018-04-15T05:29:53.262Z,12.44
2018-04-15T05:30:53.508Z,12.42
2018-04-15T05:31:53.498Z,12.48
2018-04-15T05:32:53.754Z,12.39
2018-04-15T05:33:53.744Z,12.34
2018-04-15T05:34:53.721Z,12.39
2018-04-15T05:35:53.722Z,12.38
2018-04-15T05:36:53.154Z,12.51
2018-04-15T05:37:53.683Z,12.51
2018-04-15T05:38:53.395Z,12.51
2018-04-15T05:39:53.375Z,12.44
2018-04-15T05:40:53.629Z,12.48
2018-04-15T05:41:53.345Z,12.41
2018-04-15T05:42:53.595Z,12.56
2018-04-15T05:43:53.315Z,12.42
2018-04-15T05:44:53.300Z,12.49
2018-04-15T05:45:53.293Z,12.51
2018-04-15T05:46:53.269Z,12.46
2018-04-15T05:47:53.261Z,12.49
2018-04-15T05:48:53.242Z,12.41
2018-04-15T05:49:53.227Z,12.52
2018-04-15T05:50:52.946Z,12.44
2018-04-15T05:51:53.467Z,12.52
2018-04-15T05:52:53.182Z,12.46
2018-04-15T05:53:53.500Z,12.51
2018-04-15T05:54:53.156Z,12.54
2018-04-15T05:55:53.409Z,12.49
2018-04-15T05:56:53.127Z,12.52
2018-04-15T05:57:53.108Z,12.62
2018-04-15T05:58:52.827Z,12.6
2018-04-15T05:59:52.814Z,12.54
2018-04-15T06:00:52.802Z,12.54
2018-04-15T06:01:52.782Z,12.6
2018-04-15T06:02:53.300Z,12.52
2018-04-15T06:03:53.301Z,12.48
2018-04-15T06:04:52.736Z,12.51
2018-04-15T06:05:52.983Z,12.49
2018-04-15T06:06:53.240Z,12.59
2018-04-15T06:07:52.962Z,12.6
2018-04-15T06:08:53.206Z,12.67
2018-04-15T06:09:53.184Z,12.59
2018-04-15T06:10:52.913Z,12.66
2018-04-15T06:11:52.902Z,12.66
2018-04-15T06:12:52.889Z,12.7
2018-04-15T06:13:52.864Z,12.64
2018-04-15T06:14:53.172Z,12.62
2018-04-15T06:15:52.840Z,12.67
2018-04-15T06:16:52.821Z,12.64
2018-04-15T06:17:52.821Z,12.66
2018-04-15T06:18:52.529Z,12.69
2018-04-15T06:19:53.057Z,12.69
2018-04-15T06:20:53.037Z,12.69
2018-04-15T06:21:52.750Z,12.7
2018-04-15T06:22:53.005Z,12.71
2018-04-15T06:23:52.985Z,12.69
2018-04-15T06:24:52.709Z,12.71
2018-04-15T06:25:52.958Z,12.71
2018-04-15T06:26:52.408Z,12.77
2018-04-15T06:27:52.400Z,12.77
2018-04-15T06:28:52.386Z,12.69
2018-04-15T06:29:52.631Z,12.74
2018-04-15T06:30:52.914Z,12.75
2018-04-15T06:31:52.873Z,12.77
2018-04-15T06:32:52.594Z,12.77
2018-04-15T06:33:52.584Z,12.79
2018-04-15T06:34:52.824Z,12.82
2018-04-15T06:35:52.543Z,12.82
2018-04-15T06:36:53.079Z,12.7
2018-04-15T06:37:52.246Z,12.75
2018-04-15T06:38:52.509Z,12.67
2018-04-15T06:39:52.482Z,12.77
2018-04-15T06:40:52.480Z,12.74
2018-04-15T06:41:52.454Z,12.77
2018-04-15T06:42:52.711Z,12.77
2018-04-15T06:43:52.427Z,12.82
2018-04-15T06:44:52.674Z,12.85
2018-04-15T06:45:52.396Z,12.84
2018-04-15T06:46:52.657Z,12.87
2018-04-15T06:47:52.101Z,12.92
2018-04-15T06:48:52.091Z,12.87
2018-04-15T06:49:52.605Z,12.93
2018-04-15T06:50:52.344Z,12.84
2018-04-15T06:51:52.311Z,12.93
2018-04-15T06:52:52.569Z,12.93
2018-04-15T06:53:52.605Z,12.95
2018-04-15T06:54:52.000Z,12.92
2018-04-15T06:55:52.303Z,12.93
2018-04-15T06:56:52.512Z,13.02
2018-04-15T06:57:52.493Z,12.96
2018-04-15T06:58:52.210Z,12.99
2018-04-15T06:59:52.461Z,12.99
2018-04-15T07:00:52.185Z,12.93
2018-04-15T07:01:52.168Z,12.97
2018-04-15T07:02:52.422Z,13.02
2018-04-15T07:03:52.135Z,13.03
2018-04-15T07:04:52.123Z,12.96
2018-04-15T07:05:52.108Z,12.99
2018-04-15T07:06:52.114Z,13.06
2018-04-15T07:07:52.353Z,13.09
2018-04-15T07:08:52.064Z,12.99
2018-04-15T07:09:51.785Z,13.06
2018-04-15T07:10:52.362Z,13.11
2018-04-15T07:11:52.075Z,13.04
2018-04-15T07:12:51.749Z,13.09
2018-04-15T07:13:52.271Z,13.09
2018-04-15T07:14:51.714Z,13.12
2018-04-15T07:15:52.229Z,13.22
2018-04-15T07:16:52.225Z,13.11
2018-04-15T07:17:51.669Z,13.18
2018-04-15T07:18:51.661Z,13.2
2018-04-15T07:19:51.642Z,13.22
2018-04-15T07:20:51.896Z,13.18
2018-04-15T07:21:51.914Z,13.25
2018-04-15T07:22:51.870Z,13.25
2018-04-15T07:23:51.589Z,13.37
2018-04-15T07:24:51.570Z,13.3
2018-04-15T07:25:52.096Z,13.33
2018-04-15T07:26:51.551Z,13.25
2018-04-15T07:27:52.056Z,13.3
2018-04-15T07:28:51.798Z,13.36
2018-04-15T07:29:51.771Z,13.43
2018-04-15T07:30:51.765Z,13.54
2018-04-15T07:31:52.013Z,13.55
2018-04-15T07:32:52.007Z,13.67
2018-04-15T07:33:51.719Z,13.81
2018-04-15T07:34:51.438Z,13.81
2018-04-15T07:35:51.424Z,13.81
2018-04-15T07:36:51.941Z,13.87
2018-04-15T07:37:51.928Z,13.77
2018-04-15T07:38:51.927Z,13.91
2018-04-15T07:39:51.897Z,13.8
2018-04-15T07:40:51.356Z,13.84
2018-04-15T07:41:51.339Z,13.81
2018-04-15T07:42:51.615Z,13.91
2018-04-15T07:43:51.861Z,13.92
2018-04-15T07:44:51.582Z,14.06
2018-04-15T07:45:51.296Z,14.17
2018-04-15T07:46:51.286Z,14.25
2018-04-15T07:47:51.537Z,14.27
2018-04-15T07:48:51.781Z,14.37
2018-04-15T07:49:51.506Z,14.28
2018-04-15T07:50:51.756Z,14.27
2018-04-15T07:51:51.214Z,14.17
2018-04-15T07:52:51.473Z,14.14
2018-04-15T07:53:51.184Z,14.24
2018-04-15T07:54:51.174Z,14.2
2018-04-15T07:55:51.174Z,14.28
2018-04-15T07:56:51.419Z,14.27
2018-04-15T07:57:51.136Z,14.21
2018-04-15T07:58:51.658Z,14.35
2018-04-15T07:59:51.107Z,14.44
2018-04-15T08:00:51.363Z,14.44
2018-04-15T08:01:51.349Z,14.49
2018-04-15T08:02:51.343Z,14.57
2018-04-15T08:03:51.379Z,14.56
2018-04-15T08:04:51.319Z,14.62
2018-04-15T08:05:51.310Z,14.67
2018-04-15T08:06:51.289Z,14.74
2018-04-15T08:07:51.602Z,14.78
2018-04-15T08:08:51.258Z,14.78
2018-04-15T08:09:51.251Z,14.74
2018-04-15T08:10:51.236Z,14.86
2018-04-15T08:11:51.495Z,15.06
2018-04-15T08:12:51.212Z,15.15
2018-04-15T08:13:51.472Z,15.27
2018-04-15T08:14:51.192Z,15.23
2018-04-15T08:15:51.445Z,15.36
2018-04-15T08:16:51.174Z,16.14
2018-04-15T08:17:50.888Z,17.35
2018-04-15T08:18:51.145Z,18.34
2018-04-15T08:19:50.870Z,18.77
2018-04-15T08:20:50.854Z,19.4
2018-04-15T08:21:51.379Z,20.21
2018-04-15T08:22:50.834Z,20.24
2018-04-15T08:23:51.093Z,20.5
2018-04-15T08:24:51.088Z,20.79
2018-04-15T08:25:51.341Z,20.9
2018-04-15T08:26:51.070Z,21.5
2018-04-15T08:27:50.793Z,21.56
2018-04-15T08:28:51.315Z,21.88
2018-04-15T08:29:51.304Z,22.64
2018-04-15T08:30:51.240Z,22.34
2018-04-15T08:31:51.308Z,22.02
2018-04-15T08:32:51.023Z,22.1
2018-04-15T08:33:51.016Z,21.6
2018-04-15T08:34:51.287Z,21.39
2018-04-15T08:35:51.269Z,21.06
2018-04-15T08:36:51.275Z,21.99
2018-04-15T08:37:51.260Z,22.84
2018-04-15T08:38:50.990Z,22.34
2018-04-15T08:39:51.245Z,22.47
2018-04-15T08:40:50.712Z,22.62
2018-04-15T08:41:50.970Z,23.22
2018-04-15T08:42:50.965Z,23.23
2018-04-15T08:43:50.963Z,22.87
2018-04-15T08:44:50.961Z,22.78
2018-04-15T08:45:51.229Z,22.68
2018-04-15T08:46:51.217Z,22.43
2018-04-15T08:47:51.213Z,22.01
2018-04-15T08:48:50.682Z,22.27
2018-04-15T08:49:50.940Z,22.9
2018-04-15T08:50:50.938Z,23.29
2018-04-15T08:51:50.936Z,23.4
2018-04-15T08:52:51.194Z,23.42
2018-04-15T08:53:50.663Z,22.71
2018-04-15T08:54:50.925Z,21.39
2018-04-15T08:55:50.653Z,20.86
2018-04-15T08:56:50.921Z,21.04
2018-04-15T08:57:50.649Z,21.05
2018-04-15T08:58:50.910Z,20.66
2018-04-15T08:59:50.648Z,20.81
2018-04-15T09:00:50.635Z,20.5
2018-04-15T09:01:51.166Z,19.95
2018-04-15T09:02:51.162Z,19.5
2018-04-15T09:03:50.627Z,19.1
2018-04-15T09:04:50.888Z,19.17
2018-04-15T09:05:51.153Z,19.75
2018-04-15T09:06:50.883Z,19.95
2018-04-15T09:07:50.879Z,20.25
2018-04-15T09:08:50.868Z,20.18
2018-04-15T09:09:50.613Z,19.86
2018-04-15T09:10:51.128Z,19.9
2018-04-15T09:11:50.593Z,19.83
2018-04-15T09:12:51.117Z,19.78
2018-04-15T09:13:51.115Z,20.13
2018-04-15T09:14:51.111Z,19.94
2018-04-15T09:15:51.101Z,20.09
2018-04-15T09:16:50.832Z,19.69
2018-04-15T09:17:51.097Z,19.68
2018-04-15T09:18:50.818Z,19.91
2018-04-15T09:19:51.087Z,20.3
2018-04-15T09:20:51.072Z,20.38
2018-04-15T09:21:50.543Z,20.31
2018-04-15T09:22:50.807Z,20.13
2018-04-15T09:23:51.060Z,20.43
2018-04-15T09:24:50.529Z,20.5
2018-04-15T09:25:50.789Z,20.21
2018-04-15T09:26:50.524Z,20.03
2018-04-15T09:27:50.780Z,20.09
2018-04-15T09:28:50.506Z,19.97
2018-04-15T09:29:50.504Z,20.38
2018-04-15T09:30:50.501Z,20.74
2018-04-15T09:31:50.759Z,20.41
2018-04-15T09:32:50.754Z,20.25
2018-04-15T09:33:50.753Z,20.64
2018-04-15T09:34:51.010Z,20.8
2018-04-15T09:35:50.749Z,20.69
2018-04-15T09:36:50.738Z,20.69
2018-04-15T09:37:50.468Z,21.19
2018-04-15T09:38:50.726Z,20.91
2018-04-15T09:39:50.455Z,20.39
2018-04-15T09:40:50.453Z,20.3
2018-04-15T09:41:50.716Z,20.35
2018-04-15T09:42:50.971Z,20.24
2018-04-15T09:43:50.703Z,20.31
2018-04-15T09:44:50.704Z,20.12
2018-04-15T09:45:50.962Z,19.94
2018-04-15T09:46:50.687Z,20.1
2018-04-15T09:47:50.683Z,20.47
2018-04-15T09:48:50.946Z,20.38
2018-04-15T09:49:50.461Z,20.21
2018-04-15T09:50:50.674Z,20.23
2018-04-15T09:51:50.937Z,20.3
2018-04-15T09:52:50.926Z,19.98
2018-04-15T09:53:50.654Z,19.65
2018-04-15T09:54:50.652Z,19.32
2018-04-15T09:55:50.924Z,19.58
2018-04-15T09:56:50.648Z,20.1
2018-04-15T09:57:50.372Z,20.64
2018-04-15T09:58:50.635Z,21.04
2018-04-15T09:59:50.889Z,21.2
2018-04-15T10:00:50.618Z,21.59
2018-04-15T10:01:50.672Z,20.98
2018-04-15T10:02:50.885Z,20.69
2018-04-15T10:03:50.605Z,20.51
2018-04-15T10:04:50.601Z,20.81
2018-04-15T10:05:50.598Z,21.04
2018-04-15T10:06:50.861Z,21.3
2018-04-15T10:07:50.594Z,21.53
2018-04-15T10:08:50.596Z,21.57
2018-04-15T10:09:50.315Z,21.06
2018-04-15T10:10:50.634Z,20.79
2018-04-15T10:11:50.568Z,20.84
2018-04-15T10:12:50.565Z,20.65
2018-04-15T10:13:50.559Z,20.89
2018-04-15T10:14:50.552Z,20.96
2018-04-15T10:15:50.288Z,20.72
2018-04-15T10:16:50.601Z,20.79
2018-04-15T10:17:50.537Z,20.46
2018-04-15T10:18:50.805Z,20.66
2018-04-15T10:19:50.793Z,20.89
2018-04-15T10:20:50.801Z,21.14
2018-04-15T10:21:50.785Z,21.27
2018-04-15T10:22:50.513Z,21.46
2018-04-15T10:23:50.779Z,21.82
2018-04-15T10:24:50.251Z,22.37
2018-04-15T10:25:50.771Z,22.84
2018-04-15T10:26:50.501Z,22.78
2018-04-15T10:27:50.505Z,22.2
2018-04-15T10:28:50.494Z,22.28
2018-04-15T10:29:50.758Z,22.22
2018-04-15T10:30:50.500Z,22.1
2018-04-15T10:31:50.220Z,21.99
2018-04-15T10:32:50.224Z,22.04
2018-04-15T10:33:50.753Z,22.37
2018-04-15T10:34:50.745Z,22.64
2018-04-15T10:35:50.476Z,22.71
2018-04-15T10:36:50.471Z,22.56
2018-04-15T10:37:50.730Z,22.86
2018-04-15T10:38:50.486Z,23.09
2018-04-15T10:39:50.197Z,22.92
2018-04-15T10:40:50.453Z,22.23
2018-04-15T10:41:50.192Z,22.1
2018-04-15T10:42:50.453Z,22.1
2018-04-15T10:43:50.450Z,22.34
2018-04-15T10:44:50.707Z,22.56
2018-04-15T10:45:50.174Z,22.71
2018-04-15T10:46:50.441Z,22.67
2018-04-15T10:47:50.439Z,22.25
2018-04-15T10:48:50.695Z,22.6
2018-04-15T10:49:50.692Z,22.07
2018-04-15T10:50:50.426Z,22.01
2018-04-15T10:51:50.421Z,22.06
2018-04-15T10:52:50.426Z,22.57
2018-04-15T10:53:50.687Z,22.92
2018-04-15T10:54:50.678Z,23.29
2018-04-15T10:55:50.408Z,22.93
2018-04-15T10:56:50.141Z,23.22
2018-04-15T10:57:50.672Z,23.65
2018-04-15T10:58:50.400Z,24.05
2018-04-15T10:59:50.740Z,23.8
2018-04-15T11:00:50.132Z,23.45
2018-04-15T11:01:50.140Z,23.01
2018-04-15T11:02:50.404Z,23.12
2018-04-15T11:03:50.130Z,22.74
2018-04-15T11:04:50.667Z,22.2
2018-04-15T11:05:50.135Z,22.29
2018-04-15T11:06:50.391Z,22.68
2018-04-15T11:07:50.397Z,23.27
2018-04-15T11:08:50.471Z,23.94
2018-04-15T11:09:50.401Z,23.92
2018-04-15T11:10:50.403Z,24.32
2018-04-15T11:11:50.404Z,24.95
2018-04-15T11:12:50.666Z,25.43
2018-04-15T11:13:50.673Z,25.72
2018-04-15T11:14:50.145Z,25.84
2018-04-15T11:15:50.682Z,25.59
2018-04-15T11:16:50.676Z,25.31
2018-04-15T11:17:50.156Z,25.57
2018-04-15T11:18:50.153Z,25.84
2018-04-15T11:19:50.157Z,26.17
2018-04-15T11:20:50.430Z,25.67
2018-04-15T11:21:50.434Z,25.87
2018-04-15T11:22:50.435Z,26.11
2018-04-15T11:23:50.436Z,26.35
2018-04-15T11:24:50.442Z,26.09
2018-04-15T11:25:50.732Z,26.44
2018-04-15T11:26:50.459Z,26.55
2018-04-15T11:27:50.458Z,26.83
2018-04-15T11:28:50.763Z,27.19
2018-04-15T11:29:50.737Z,26.84
2018-04-15T11:30:50.736Z,27.04
2018-04-15T11:31:50.209Z,27.29
2018-04-15T11:32:50.210Z,27.2
2018-04-15T11:33:50.485Z,26.96
2018-04-15T11:34:50.234Z,26.79
2018-04-15T11:35:50.229Z,27.01
2018-04-15T11:36:50.892Z,27.39
2018-04-15T11:37:50.501Z,27.36
2018-04-15T11:38:50.773Z,27.17
2018-04-15T11:39:50.520Z,27.33
2018-04-15T11:40:50.256Z,26.83
2018-04-15T11:41:50.526Z,26.22
2018-04-15T11:42:50.530Z,26.02
2018-04-15T11:43:50.276Z,25.75
2018-04-15T11:44:50.285Z,25.9
2018-04-15T11:45:50.819Z,25.9
2018-04-15T11:46:50.833Z,26.31
2018-04-15T11:47:50.293Z,26.11
2018-04-15T11:48:50.560Z,26.25
2018-04-15T11:49:50.835Z,26.06
2018-04-15T11:50:50.574Z,25.82
2018-04-15T11:51:50.579Z,25.82
2018-04-15T11:52:50.585Z,26.22
2018-04-15T11:53:50.583Z,26.29
2018-04-15T11:54:50.863Z,26.36
2018-04-15T11:55:50.593Z,26.04
2018-04-15T11:56:50.600Z,25.77
2018-04-15T11:57:50.605Z,25.44
2018-04-15T11:58:50.870Z,25.12
2018-04-15T11:59:50.877Z,24.97
2018-04-15T12:00:50.614Z,24.71
2018-04-15T12:01:50.617Z,24.45
2018-04-15T12:02:50.358Z,24.31
2018-04-15T12:03:50.880Z,24.16
2018-04-15T12:04:50.620Z,23.87
2018-04-15T12:05:50.616Z,23.32
2018-04-15T12:06:50.358Z,23.26
2018-04-15T12:07:50.887Z,23.15
2018-04-15T12:08:50.626Z,23.19
2018-04-15T12:09:50.639Z,23.31
2018-04-15T12:10:50.891Z,23.34
2018-04-15T12:11:50.892Z,23.39
2018-04-15T12:12:50.353Z,23.64
2018-04-15T12:13:50.621Z,23.77
2018-04-15T12:14:50.623Z,23.77
2018-04-15T12:15:50.356Z,23.77
2018-04-15T12:16:50.624Z,23.52
2018-04-15T12:17:50.348Z,23.45
2018-04-15T12:18:50.613Z,23.15
2018-04-15T12:19:50.880Z,22.57
2018-04-15T12:20:50.879Z,22.14
2018-04-15T12:21:50.344Z,21.98
2018-04-15T12:22:50.610Z,22.01
2018-04-15T12:23:50.603Z,22.06
2018-04-15T12:24:50.340Z,22.06
2018-04-15T12:25:50.605Z,22.1
2018-04-15T12:26:50.948Z,22.09
2018-04-15T12:27:50.594Z,22.17
2018-04-15T12:28:50.586Z,22.14
2018-04-15T12:29:50.592Z,22.35
2018-04-15T12:30:50.787Z,22.32
2018-04-15T12:31:50.317Z,22.28
2018-04-15T12:32:50.576Z,22.2
2018-04-15T12:33:50.654Z,22.02
2018-04-15T12:34:50.302Z,22.02
2018-04-15T12:35:50.959Z,21.99
2018-04-15T12:36:50.832Z,22.14
2018-04-15T12:37:50.565Z,22.28
2018-04-15T12:38:50.300Z,22.32
2018-04-15T12:39:50.562Z,22.43
2018-04-15T12:40:50.549Z,22.47
2018-04-15T12:41:50.545Z,22.17
2018-04-15T12:42:50.540Z,22.09
2018-04-15T12:43:50.530Z,22.1
2018-04-15T12:44:50.534Z,22.02
2018-04-15T12:45:50.791Z,21.99
2018-04-15T12:46:50.803Z,21.95
2018-04-15T12:47:50.788Z,21.91
2018-04-15T12:48:50.248Z,21.97
2018-04-15T12:49:50.507Z,22.02
2018-04-15T12:50:50.506Z,22.02
2018-04-15T12:51:50.550Z,22.04
2018-04-15T12:52:50.764Z,21.99
2018-04-15T12:53:50.230Z,21.83
2018-04-15T12:54:50.759Z,21.67